createdAt,value
2014-09-07T16:35:59.390Z,100678
2014-09-07T16:36:16.999Z,100675
2014-09-07T16:36:35.190Z,100664
2014-09-07T16:36:53.377Z,100678
2014-09-07T16:37:11.580Z,100672
2014-09-07T16:37:29.771Z,100678
2014-09-07T16:37:47.974Z,100678
2014-09-07T16:38:06.161Z,100664
2014-09-07T16:38:24.364Z,100675
2014-09-07T16:38:42.571Z,100669
2014-09-07T16:39:00.758Z,100678
2014-09-07T16:39:18.961Z,100667
2014-09-07T16:39:37.150Z,100675
2014-09-07T16:39:55.353Z,100669
2014-09-07T16:40:13.540Z,100669
2014-09-07T16:40:31.743Z,100672
2014-09-07T16:40:49.934Z,100672
2014-09-07T16:41:08.137Z,100672
2014-09-07T16:41:26.325Z,100664
2014-09-07T16:41:44.514Z,100672
2014-09-07T16:42:02.717Z,100669
2014-09-07T16:42:20.905Z,100672
2014-09-07T16:42:39.108Z,100669
2014-09-07T16:42:57.312Z,100669
2014-09-07T16:43:15.499Z,100669
2014-09-07T16:43:33.703Z,100675
2014-09-07T16:43:51.893Z,100669
2014-09-07T16:44:10.096Z,100675
2014-09-07T16:44:28.284Z,100666
2014-09-07T16:44:46.487Z,100669
2014-09-07T16:45:04.691Z,100672
2014-09-07T16:45:22.878Z,100669
2014-09-07T16:45:41.082Z,100664
2014-09-07T16:45:59.272Z,100669
2014-09-07T16:46:17.475Z,100669
2014-09-07T16:46:35.663Z,100669
2014-09-07T16:46:53.866Z,100664
2014-09-07T16:47:12.054Z,100664
2014-09-07T16:47:30.257Z,100672
2014-09-07T16:47:48.445Z,100672
2014-09-07T16:48:06.634Z,100678
2014-09-07T16:48:24.838Z,100666
2014-09-07T16:48:43.041Z,100666
2014-09-07T16:49:01.228Z,100666
2014-09-07T16:49:19.434Z,100666
2014-09-07T16:49:37.637Z,100675
2014-09-07T16:49:55.825Z,100663
2014-09-07T16:50:14.014Z,100675
2014-09-07T16:50:32.218Z,100666
2014-09-07T16:50:50.405Z,100663
2014-09-07T16:51:08.608Z,100669
2014-09-07T16:51:26.798Z,100672
2014-09-07T16:51:45.001Z,100672
2014-09-07T16:52:03.188Z,100663
2014-09-07T16:52:21.393Z,100672
2014-09-07T16:52:39.581Z,100672
2014-09-07T16:52:57.768Z,100669
2014-09-07T16:53:15.972Z,100666
2014-09-07T16:53:34.176Z,100672
2014-09-07T16:53:52.363Z,100663
2014-09-07T16:54:10.551Z,100675
2014-09-07T16:54:28.960Z,100683
2014-09-07T16:54:47.194Z,100678
2014-09-07T16:55:05.444Z,100683
2014-09-07T16:55:23.679Z,100675
2014-09-07T16:55:42.056Z,100675
2014-09-07T16:56:00.524Z,100683
2014-09-07T16:56:18.978Z,100678
2014-09-07T16:56:37.105Z,100678
2014-09-07T16:56:55.401Z,100678
2014-09-07T16:57:13.886Z,100678
2014-09-07T16:57:32.370Z,100683
2014-09-07T16:57:50.794Z,100683
2014-09-07T16:58:08.966Z,100675
2014-09-07T16:58:27.169Z,100686
2014-09-07T16:58:45.359Z,100669
2014-09-07T16:59:03.562Z,100689
2014-09-07T16:59:21.749Z,100675
2014-09-07T16:59:39.937Z,100675
2014-09-07T16:59:58.142Z,100681
2014-09-07T17:00:16.345Z,100692
2014-09-07T17:00:34.532Z,100683
2014-09-07T17:00:52.738Z,100681
2014-09-07T17:01:10.925Z,100683
2014-09-07T17:01:29.128Z,100683
2014-09-07T17:01:47.316Z,100678
2014-09-07T17:02:05.505Z,100681
2014-09-07T17:02:23.708Z,100678
2014-09-07T17:02:41.896Z,100686
2014-09-07T17:03:00.102Z,100686
2014-09-07T17:03:18.305Z,100683
2014-09-07T17:03:36.493Z,100686
2014-09-07T17:03:54.680Z,100686
2014-09-07T17:04:12.884Z,100686
2014-09-07T17:04:31.072Z,100678
2014-09-07T17:04:49.275Z,100686
2014-09-07T17:05:07.464Z,100678
2014-09-07T17:05:25.667Z,100686
2014-09-07T17:05:43.855Z,100683
2014-09-07T17:06:02.058Z,100672
2014-09-07T17:06:20.263Z,100680
2014-09-07T17:06:38.451Z,100683
2014-09-07T17:06:56.654Z,100678
2014-09-07T17:07:14.843Z,100678
2014-09-07T17:07:33.046Z,100683
2014-09-07T17:07:51.234Z,100680
2014-09-07T17:08:09.421Z,100678
2014-09-07T17:08:27.628Z,100678
2014-09-07T17:08:45.831Z,100675
2014-09-07T17:09:04.018Z,100678
2014-09-07T17:09:22.223Z,100675
2014-09-07T17:09:40.411Z,100678
2014-09-07T17:09:58.614Z,100675
2014-09-07T17:10:16.801Z,100672
2014-09-07T17:10:35.007Z,100680
2014-09-07T17:10:53.210Z,100680
2014-09-07T17:11:11.397Z,100675
2014-09-07T17:11:29.587Z,100663
2014-09-07T17:11:47.790Z,100669
2014-09-07T17:12:05.977Z,100669
2014-09-07T17:12:24.180Z,100680
2014-09-07T17:12:42.386Z,100675
2014-09-07T17:13:00.573Z,100680
2014-09-07T17:13:18.776Z,100675
2014-09-07T17:13:36.966Z,100672
2014-09-07T17:13:55.169Z,100672
2014-09-07T17:14:13.356Z,100675
2014-09-07T17:14:31.559Z,100680
2014-09-07T17:14:49.749Z,100669
2014-09-07T17:15:07.952Z,100686
2014-09-07T17:15:26.140Z,100686
2014-09-07T17:15:44.345Z,100680
2014-09-07T17:16:02.532Z,100675
2014-09-07T17:16:20.735Z,100675
2014-09-07T17:16:38.923Z,100678
2014-09-07T17:16:57.128Z,100675
2014-09-07T17:17:15.315Z,100680
2014-09-07T17:17:33.519Z,100689
2014-09-07T17:17:51.708Z,100678
2014-09-07T17:18:09.896Z,100678
2014-09-07T17:18:28.099Z,100672
2014-09-07T17:18:46.302Z,100683
2014-09-07T17:19:04.491Z,100675
2014-09-07T17:19:22.694Z,100678
2014-09-07T17:19:40.882Z,100683
2014-09-07T17:19:59.087Z,100678
2014-09-07T17:20:17.290Z,100683
2014-09-07T17:20:35.478Z,100678
2014-09-07T17:20:53.681Z,100680
2014-09-07T17:21:11.870Z,100680
2014-09-07T17:21:30.073Z,100678
2014-09-07T17:21:48.261Z,100683
2014-09-07T17:22:06.466Z,100672
2014-09-07T17:22:24.669Z,100680
2014-09-07T17:22:42.857Z,100686
2014-09-07T17:23:01.060Z,100678
2014-09-07T17:23:19.265Z,100680
2014-09-07T17:23:37.452Z,100683
2014-09-07T17:23:55.656Z,100678
2014-09-07T17:24:13.845Z,100683
2014-09-07T17:24:32.048Z,100678
2014-09-07T17:24:50.236Z,100680
2014-09-07T17:25:08.439Z,100680
2014-09-07T17:25:26.644Z,100675
2014-09-07T17:25:44.831Z,100675
2014-09-07T17:26:03.035Z,100678
2014-09-07T17:26:21.241Z,100680
2014-09-07T17:26:39.428Z,100675
2014-09-07T17:26:57.631Z,100675
2014-09-07T17:27:15.819Z,100675
2014-09-07T17:27:34.023Z,100683
2014-09-07T17:27:52.226Z,100675
2014-09-07T17:28:10.414Z,100686
2014-09-07T17:28:28.619Z,100672
2014-09-07T17:28:46.806Z,100683
2014-09-07T17:29:05.009Z,100678
2014-09-07T17:29:23.212Z,100683
2014-09-07T17:29:41.403Z,100680
2014-09-07T17:29:59.606Z,100683
2014-09-07T17:30:17.809Z,100680
2014-09-07T17:30:35.998Z,100680
2014-09-07T17:30:54.201Z,100683
2014-09-07T17:31:12.388Z,100692
2014-09-07T17:31:30.593Z,100686
2014-09-07T17:31:48.781Z,100683
2014-09-07T17:32:06.984Z,100683
2014-09-07T17:32:25.172Z,100680
2014-09-07T17:32:43.377Z,100678
2014-09-07T17:33:01.564Z,100698
2014-09-07T17:33:19.767Z,100686
2014-09-07T17:33:37.957Z,100683
2014-09-07T17:33:56.160Z,100683
2014-09-07T17:34:14.363Z,100689
2014-09-07T17:34:33.035Z,100695
2014-09-07T17:34:52.100Z,100678
2014-09-07T17:35:10.007Z,100678
2014-09-07T17:35:28.210Z,100689
2014-09-07T17:35:46.398Z,100686
2014-09-07T17:36:04.601Z,100686
2014-09-07T17:36:22.789Z,100672
2014-09-07T17:36:40.992Z,100683
2014-09-07T17:36:59.182Z,100686
2014-09-07T17:37:17.385Z,100683
2014-09-07T17:37:35.588Z,100680
2014-09-07T17:37:53.777Z,100678
2014-09-07T17:38:11.980Z,100683
2014-09-07T17:38:30.168Z,100689
2014-09-07T17:38:48.371Z,100675
2014-09-07T17:39:06.561Z,100686
2014-09-07T17:39:24.748Z,100683
2014-09-07T17:39:42.951Z,100680
2014-09-07T17:40:01.141Z,100686
2014-09-07T17:40:19.344Z,100678
2014-09-07T17:40:37.531Z,100683
2014-09-07T17:40:55.734Z,100680
2014-09-07T17:41:13.925Z,100686
2014-09-07T17:41:32.128Z,100678
2014-09-07T17:41:50.316Z,100678
2014-09-07T17:42:08.521Z,100689
2014-09-07T17:42:26.708Z,100672
2014-09-07T17:42:44.911Z,100675
2014-09-07T17:43:03.099Z,100675
2014-09-07T17:43:21.303Z,100686
2014-09-07T17:43:39.490Z,100675
2014-09-07T17:43:57.694Z,100675
2014-09-07T17:44:15.884Z,100675
2014-09-07T17:44:34.087Z,100678
2014-09-07T17:44:52.275Z,100680
2014-09-07T17:45:10.478Z,100672
2014-09-07T17:45:28.666Z,100680
2014-09-07T17:45:46.869Z,100675
2014-09-07T17:46:05.057Z,100683
2014-09-07T17:46:23.246Z,100675
2014-09-07T17:46:41.450Z,100680
2014-09-07T17:46:59.637Z,100683
2014-09-07T17:47:17.871Z,100683
2014-09-07T17:47:36.046Z,100678
2014-09-07T17:47:54.234Z,100683
2014-09-07T17:48:12.421Z,100678
2014-09-07T17:48:30.625Z,100680
2014-09-07T17:48:49.391Z,100672
2014-09-07T17:49:07.797Z,100672
2014-09-07T17:49:26.000Z,100672
2014-09-07T17:49:44.191Z,100683
2014-09-07T17:50:02.394Z,100678
2014-09-07T17:50:20.582Z,100683
2014-09-07T17:50:38.771Z,100678
2014-09-07T17:50:56.974Z,100675
2014-09-07T17:51:15.162Z,100678
2014-09-07T17:51:33.365Z,100675
2014-09-07T17:51:51.570Z,100672
2014-09-07T17:52:09.757Z,100675
2014-09-07T17:52:27.945Z,100680
2014-09-07T17:52:46.150Z,100683
2014-09-07T17:53:04.353Z,100678
2014-09-07T17:53:22.541Z,100672
2014-09-07T17:53:40.744Z,100672
2014-09-07T17:53:58.933Z,100672
2014-09-07T17:54:17.121Z,100672
2014-09-07T17:54:35.324Z,100689
2014-09-07T17:54:53.529Z,100683
2014-09-07T17:55:11.717Z,100681
2014-09-07T17:55:29.920Z,100681
2014-09-07T17:55:48.108Z,100669
2014-09-07T17:56:06.296Z,100675
2014-09-07T17:56:24.499Z,100675
2014-09-07T17:56:42.702Z,100675
2014-09-07T17:57:00.892Z,100678
2014-09-07T17:57:19.080Z,100678
2014-09-07T17:57:37.283Z,100678
2014-09-07T17:57:55.473Z,100681
2014-09-07T17:58:13.660Z,100678
2014-09-07T17:58:31.848Z,100681
2014-09-07T17:58:50.035Z,100683
2014-09-07T17:59:08.225Z,100686
2014-09-07T17:59:26.428Z,100686
2014-09-07T17:59:44.615Z,100678
2014-09-07T18:00:02.805Z,100683
2014-09-07T18:00:20.992Z,100683
2014-09-07T18:00:39.180Z,100689
2014-09-07T18:00:57.367Z,100683
2014-09-07T18:01:15.557Z,100689
2014-09-07T18:01:33.760Z,100686
2014-09-07T18:01:51.947Z,100678
2014-09-07T18:02:10.137Z,100686
2014-09-07T18:02:28.324Z,100683
2014-09-07T18:02:46.512Z,100695
2014-09-07T18:03:04.746Z,100689
2014-09-07T18:03:22.919Z,100701
2014-09-07T18:03:41.310Z,100692
2014-09-07T18:04:00.200Z,100695
2014-09-07T18:04:17.860Z,100698
2014-09-07T18:04:36.047Z,100686
2014-09-07T18:04:54.250Z,100686
2014-09-07T18:05:12.438Z,100695
2014-09-07T18:05:30.627Z,100695
2014-09-07T18:05:48.815Z,100698
2014-09-07T18:06:07.002Z,100681
2014-09-07T18:06:25.192Z,100698
2014-09-07T18:06:43.395Z,100698
2014-09-07T18:07:01.582Z,100686
2014-09-07T18:07:19.770Z,100692
2014-09-07T18:07:37.959Z,100686
2014-09-07T18:07:56.147Z,100692
2014-09-07T18:08:14.350Z,100701
2014-09-07T18:08:32.539Z,100692
2014-09-07T18:08:50.727Z,100698
2014-09-07T18:09:08.914Z,100698
2014-09-07T18:09:27.102Z,100692
2014-09-07T18:09:45.291Z,100689
2014-09-07T18:10:03.479Z,100689
2014-09-07T18:10:21.682Z,100698
2014-09-07T18:10:39.872Z,100698
2014-09-07T18:10:58.059Z,100692
2014-09-07T18:11:16.247Z,100692
2014-09-07T18:11:34.434Z,100695
2014-09-07T18:11:52.624Z,100703
2014-09-07T18:12:10.827Z,100695
2014-09-07T18:12:29.014Z,100703
2014-09-07T18:12:47.204Z,100703
2014-09-07T18:13:05.391Z,100709
2014-09-07T18:13:23.579Z,100703
2014-09-07T18:13:41.766Z,100698
2014-09-07T18:13:59.956Z,100701
2014-09-07T18:14:18.159Z,100709
2014-09-07T18:14:36.346Z,100703
2014-09-07T18:14:54.537Z,100698
2014-09-07T18:15:12.724Z,100712
2014-09-07T18:15:30.912Z,100709
2014-09-07T18:15:49.099Z,100706
2014-09-07T18:16:07.303Z,100701
2014-09-07T18:16:25.491Z,100712
2014-09-07T18:16:43.678Z,100709
2014-09-07T18:17:01.869Z,100715
2014-09-07T18:17:20.056Z,100709
2014-09-07T18:17:38.244Z,100718
2014-09-07T18:17:56.432Z,100715
2014-09-07T18:18:14.620Z,100709
2014-09-07T18:18:32.807Z,100709
2014-09-07T18:18:51.011Z,100715
2014-09-07T18:19:09.200Z,100709
2014-09-07T18:19:27.388Z,100718
2014-09-07T18:19:45.575Z,100715
2014-09-07T18:20:03.765Z,100715
2014-09-07T18:20:21.952Z,100709
2014-09-07T18:20:40.140Z,100712
2014-09-07T18:20:58.343Z,100712
2014-09-07T18:21:16.532Z,100715
2014-09-07T18:21:34.720Z,100715
2014-09-07T18:21:52.907Z,100712
2014-09-07T18:22:11.097Z,100718
2014-09-07T18:22:29.284Z,100709
2014-09-07T18:22:47.472Z,100721
2014-09-07T18:23:05.659Z,100721
2014-09-07T18:23:23.864Z,100721
2014-09-07T18:23:42.052Z,100718
2014-09-07T18:24:00.239Z,100721
2014-09-07T18:24:18.430Z,100709
2014-09-07T18:24:36.617Z,100715
2014-09-07T18:24:54.805Z,100721
2014-09-07T18:25:12.992Z,100718
2014-09-07T18:25:31.182Z,100718
2014-09-07T18:25:49.369Z,100721
2014-09-07T18:26:07.572Z,100718
2014-09-07T18:26:25.761Z,100715
2014-09-07T18:26:43.948Z,100712
2014-09-07T18:27:02.136Z,100726
2014-09-07T18:27:20.323Z,100732
2014-09-07T18:27:38.514Z,100723
2014-09-07T18:27:56.717Z,100726
2014-09-07T18:28:14.905Z,100729
2014-09-07T18:28:33.094Z,100718
2014-09-07T18:28:51.282Z,100732
2014-09-07T18:29:09.485Z,100732
2014-09-07T18:29:27.672Z,100721
2014-09-07T18:29:45.862Z,100732
2014-09-07T18:30:04.049Z,100735
2014-09-07T18:30:22.237Z,100738
2014-09-07T18:30:40.426Z,100732
2014-09-07T18:30:58.629Z,100732
2014-09-07T18:31:16.817Z,100726
2014-09-07T18:31:35.004Z,100741
2014-09-07T18:31:53.194Z,100732
2014-09-07T18:32:11.381Z,100741
2014-09-07T18:32:29.569Z,100738
2014-09-07T18:32:47.757Z,100743
2014-09-07T18:33:05.960Z,100735
2014-09-07T18:33:24.148Z,100743
2014-09-07T18:33:42.335Z,100746
2014-09-07T18:34:00.526Z,100732
2014-09-07T18:34:18.729Z,100741
2014-09-07T18:34:36.917Z,100735
2014-09-07T18:34:55.106Z,100743
2014-09-07T18:35:13.294Z,100732
2014-09-07T18:35:31.481Z,100741
2014-09-07T18:35:49.669Z,100741
2014-09-07T18:36:07.857Z,100732
2014-09-07T18:36:26.060Z,100743
2014-09-07T18:36:44.248Z,100729
2014-09-07T18:37:02.438Z,100752
2014-09-07T18:37:20.626Z,100738
2014-09-07T18:37:38.813Z,100749
2014-09-07T18:37:57.016Z,100735
2014-09-07T18:38:15.206Z,100738
2014-09-07T18:38:33.409Z,100752
2014-09-07T18:38:51.581Z,100735
2014-09-07T18:39:09.770Z,100743
2014-09-07T18:39:27.958Z,100738
2014-09-07T18:39:46.161Z,100741
2014-09-07T18:40:04.348Z,100741
2014-09-07T18:40:22.538Z,100738
2014-09-07T18:40:40.725Z,100741
2014-09-07T18:40:58.929Z,100743
2014-09-07T18:41:17.118Z,100741
2014-09-07T18:41:35.306Z,100749
2014-09-07T18:41:53.493Z,100735
2014-09-07T18:42:11.681Z,100746
2014-09-07T18:42:29.870Z,100743
2014-09-07T18:42:48.058Z,100749
2014-09-07T18:43:06.245Z,100746
2014-09-07T18:43:24.450Z,100741
2014-09-07T18:43:42.638Z,100746
2014-09-07T18:44:00.825Z,100746
2014-09-07T18:44:19.013Z,100746
2014-09-07T18:44:37.202Z,100749
2014-09-07T18:44:55.390Z,100746
2014-09-07T18:45:13.577Z,100743
2014-09-07T18:45:31.782Z,100746
2014-09-07T18:45:49.970Z,100746
2014-09-07T18:46:08.157Z,100755
2014-09-07T18:46:26.345Z,100743
2014-09-07T18:46:44.534Z,100743
2014-09-07T18:47:02.722Z,100746
2014-09-07T18:47:20.925Z,100749
2014-09-07T18:47:39.114Z,100746
2014-09-07T18:47:57.302Z,100746
2014-09-07T18:48:15.489Z,100746
2014-09-07T18:48:33.677Z,100746
2014-09-07T18:48:51.866Z,100743
2014-09-07T18:49:10.054Z,100746
2014-09-07T18:49:28.241Z,100741
2014-09-07T18:49:46.448Z,100741
2014-09-07T18:50:04.635Z,100746
2014-09-07T18:50:22.823Z,100741
2014-09-07T18:50:41.010Z,100741
2014-09-07T18:50:59.199Z,100746
2014-09-07T18:51:17.386Z,100741
2014-09-07T18:51:35.574Z,100743
2014-09-07T18:51:53.780Z,100741
2014-09-07T18:52:11.967Z,100746
2014-09-07T18:52:30.155Z,100749
2014-09-07T18:52:48.342Z,100746
2014-09-07T18:53:06.532Z,100738
2014-09-07T18:53:24.719Z,100743
2014-09-07T18:53:42.922Z,100741
2014-09-07T18:54:01.112Z,100746
2014-09-07T18:54:19.299Z,100738
2014-09-07T18:54:37.487Z,100743
2014-09-07T18:54:55.674Z,100741
2014-09-07T18:55:13.878Z,100746
2014-09-07T18:55:32.066Z,100741
2014-09-07T18:55:50.269Z,100735
2014-09-07T18:56:08.459Z,100743
2014-09-07T18:56:26.662Z,100743
2014-09-07T18:56:44.849Z,100746
2014-09-07T18:57:03.037Z,100746
2014-09-07T19:55:25.948Z,100795
2014-09-07T19:55:44.135Z,100781
2014-09-07T21:01:04.339Z,100825
2014-09-07T21:01:22.277Z,100828
2014-09-07T21:01:40.464Z,100834
2014-09-07T21:01:58.669Z,100825
2014-09-07T21:02:16.857Z,100831
2014-09-07T21:02:35.076Z,100831
2014-09-07T21:02:53.294Z,100836
2014-09-07T21:03:11.484Z,100836
2014-09-07T21:03:29.687Z,100825
2014-09-07T21:03:47.890Z,100819
2014-09-07T21:04:06.080Z,100831
2014-09-07T21:04:24.314Z,100828
2014-09-07T21:04:42.548Z,100828
2014-09-07T21:05:00.736Z,100822
2014-09-07T21:05:18.941Z,100825
2014-09-07T21:05:37.128Z,100828
2014-09-07T21:05:55.363Z,100825
2014-09-07T21:06:13.537Z,100830
2014-09-07T21:06:31.974Z,100822
2014-09-07T21:06:50.146Z,100830
2014-09-07T21:07:08.349Z,100830
2014-09-07T21:07:26.539Z,100830
2014-09-07T21:07:44.742Z,100825
2014-09-07T21:08:02.929Z,100833
2014-09-07T21:08:21.150Z,100822
2014-09-07T21:08:39.338Z,100830
2014-09-07T21:08:57.525Z,100825
2014-09-07T21:09:15.730Z,100836
2014-09-07T21:09:33.933Z,100836
2014-09-07T21:09:52.121Z,100828
2014-09-07T21:10:10.324Z,100825
2014-09-07T21:10:28.513Z,100822
2014-09-07T21:10:46.717Z,100825
2014-09-07T21:11:04.904Z,100830
2014-09-07T21:11:23.109Z,100833
2014-09-07T21:11:41.297Z,100828
2014-09-07T21:11:59.500Z,100833
2014-09-07T21:12:17.689Z,100822
2014-09-07T21:12:35.892Z,100822
2014-09-07T21:12:54.080Z,100836
2014-09-07T21:13:12.283Z,100822
2014-09-07T21:13:30.473Z,100819
2014-09-07T21:13:48.676Z,100816
2014-09-07T21:14:06.863Z,100830
2014-09-07T21:14:25.068Z,100825
2014-09-07T21:14:43.256Z,100833
2014-09-07T21:15:01.459Z,100822
2014-09-07T21:15:19.662Z,100819
2014-09-07T21:15:37.852Z,100830
2014-09-07T21:15:56.055Z,100822
2014-09-07T21:16:14.242Z,100822
2014-09-07T21:16:32.447Z,100833
2014-09-07T21:16:50.635Z,100825
2014-09-07T21:17:08.838Z,100830
2014-09-07T21:17:27.025Z,100828
2014-09-07T21:17:45.231Z,100822
2014-09-07T21:18:03.434Z,100830
2014-09-07T21:18:21.621Z,100833
2014-09-07T21:18:39.826Z,100822
2014-09-07T21:18:58.029Z,100825
2014-09-07T21:19:16.217Z,100833
2014-09-07T21:19:34.420Z,100836
2014-09-07T21:19:52.610Z,100833
2014-09-07T21:20:10.813Z,100830
2014-09-07T21:20:29.000Z,100833
2014-09-07T21:20:47.190Z,100833
2014-09-07T21:21:05.377Z,100830
2014-09-07T21:21:23.565Z,100833
2014-09-07T21:21:41.768Z,100839
2014-09-07T21:21:59.957Z,100833
2014-09-07T21:22:18.145Z,100822
2014-09-07T21:22:36.332Z,100836
2014-09-07T21:22:54.522Z,100825
2014-09-07T21:23:12.709Z,100830
2014-09-07T21:23:30.912Z,100825
2014-09-07T21:23:49.100Z,100830
2014-09-07T21:24:07.289Z,100833
2014-09-07T21:24:25.477Z,100833
2014-09-07T21:24:43.680Z,100816
2014-09-07T21:25:01.871Z,100836
2014-09-07T21:25:20.058Z,100833
2014-09-07T21:25:38.246Z,100833
2014-09-07T21:25:56.433Z,100833
2014-09-07T21:26:14.637Z,100836
2014-09-07T21:26:32.825Z,100833
2014-09-07T21:26:51.012Z,100839
2014-09-07T21:27:09.202Z,100839
2014-09-07T21:27:27.389Z,100827
2014-09-07T21:27:45.592Z,100844
2014-09-07T21:28:03.780Z,100844
2014-09-07T21:28:21.985Z,100836
2014-09-07T21:28:40.157Z,100833
2014-09-07T21:28:58.344Z,100836
2014-09-07T21:29:16.535Z,100839
2014-09-07T21:29:34.738Z,100844
2014-09-07T21:29:52.925Z,100830
2014-09-07T21:30:11.113Z,100836
2014-09-07T21:30:29.301Z,100830
2014-09-07T21:30:47.489Z,100830
2014-09-07T21:31:05.692Z,100836
2014-09-07T21:31:23.883Z,100833
2014-09-07T21:31:42.070Z,100822
2014-09-07T21:32:00.258Z,100830
2014-09-07T21:32:18.445Z,100844
2014-09-07T21:32:36.649Z,100839
2014-09-07T21:32:54.837Z,100824
2014-09-07T21:33:13.024Z,100830
2014-09-07T21:33:31.215Z,100836
2014-09-07T21:33:49.418Z,100839
2014-09-07T21:34:07.605Z,100836
2014-09-07T21:34:25.793Z,100836
2014-09-07T21:34:43.982Z,100839
2014-09-07T21:35:02.170Z,100833
2014-09-07T21:35:20.357Z,100839
2014-09-07T21:35:38.562Z,100827
2014-09-07T21:35:56.750Z,100839
2014-09-07T21:36:14.937Z,100839
2014-09-07T21:36:33.127Z,100836
2014-09-07T21:36:51.314Z,100846
2014-09-07T21:37:09.518Z,100836
2014-09-07T21:37:27.705Z,100846
2014-09-07T21:37:45.894Z,100836
2014-09-07T21:38:04.081Z,100839
2014-09-07T21:38:22.269Z,100827
2014-09-07T21:38:40.475Z,100844
2014-09-07T21:38:58.662Z,100844
2014-09-07T21:39:16.850Z,100836
2014-09-07T21:39:35.037Z,100839
2014-09-07T21:39:53.227Z,100833
2014-09-07T21:40:11.414Z,100827
2014-09-07T21:40:29.617Z,100844
2014-09-07T21:40:47.807Z,100844
2014-09-07T21:41:05.994Z,100830
2014-09-07T21:41:24.182Z,100839
2014-09-07T21:41:42.369Z,100844
2014-09-07T21:42:00.559Z,100844
2014-09-07T21:42:18.762Z,100833
2014-09-07T21:42:36.949Z,100844
2014-09-07T21:42:55.139Z,100833
2014-09-07T21:43:13.326Z,100852
2014-09-07T21:43:31.514Z,100836
2014-09-07T21:43:49.717Z,100830
2014-09-07T21:44:07.907Z,100844
2014-09-07T21:44:26.094Z,100846
2014-09-07T21:44:44.282Z,100838
2014-09-07T21:45:02.471Z,100838
2014-09-07T21:45:20.674Z,100844
2014-09-07T21:45:38.862Z,100846
2014-09-07T21:45:57.049Z,100836
2014-09-07T21:46:15.239Z,100846
2014-09-07T21:46:33.426Z,100852
2014-09-07T21:46:51.614Z,100846
2014-09-07T21:47:09.803Z,100849
2014-09-07T21:47:27.991Z,100852
2014-09-07T21:47:46.178Z,100844
2014-09-07T21:48:04.381Z,100849
2014-09-07T21:48:22.571Z,100846
2014-09-07T21:48:40.758Z,100838
2014-09-07T21:48:58.946Z,100838
2014-09-07T21:49:17.135Z,100849
2014-09-07T21:49:35.323Z,100844
2014-09-07T21:49:53.526Z,100844
2014-09-07T21:50:11.713Z,100846
2014-09-07T21:50:29.903Z,100852
2014-09-07T21:50:48.090Z,100846
2014-09-07T21:51:06.278Z,100835
2014-09-07T21:51:24.467Z,100838
2014-09-07T21:51:42.655Z,100844
2014-09-07T21:52:00.842Z,100844
2014-09-07T21:52:19.046Z,100833
2014-09-07T21:52:37.235Z,100835
2014-09-07T21:52:55.423Z,100833
2014-09-07T21:53:13.610Z,100844
2014-09-07T21:53:31.800Z,100833
2014-09-07T21:53:50.003Z,100852
2014-09-07T21:54:08.190Z,100838
2014-09-07T21:54:26.378Z,100833
2014-09-07T21:54:44.567Z,100835
2014-09-07T21:55:02.755Z,100833
2014-09-07T21:55:20.958Z,100846
2014-09-07T21:55:39.147Z,100844
2014-09-07T21:55:57.335Z,100846
2014-09-07T21:56:15.522Z,100844
2014-09-07T21:56:33.710Z,100838
2014-09-07T21:56:51.899Z,100838
2014-09-07T21:57:10.087Z,100846
2014-09-07T21:57:28.290Z,100838
2014-09-07T21:57:46.479Z,100838
2014-09-07T21:58:04.667Z,100835
2014-09-07T21:58:22.854Z,100832
2014-09-07T21:58:41.042Z,100830
2014-09-07T21:58:59.247Z,100835
2014-09-07T21:59:17.435Z,100838
2014-09-07T21:59:35.622Z,100844
2014-09-07T21:59:53.812Z,100838
2014-09-07T22:00:11.999Z,100846
2014-09-07T22:00:30.202Z,100849
2014-09-07T22:00:48.390Z,100838
2014-09-07T22:01:06.579Z,100838
2014-09-07T22:01:24.767Z,100844
2014-09-07T22:01:42.954Z,100846
2014-09-07T22:02:01.159Z,100844
2014-09-07T22:02:19.347Z,100838
2014-09-07T22:02:37.534Z,100835
2014-09-07T22:02:55.722Z,100844
2014-09-07T22:03:13.911Z,100835
2014-09-07T22:03:32.099Z,100838
2014-09-07T22:03:50.302Z,100838
2014-09-07T22:04:08.492Z,100846
2014-09-07T22:04:26.680Z,100844
2014-09-07T22:04:44.867Z,100844
2014-09-07T22:05:03.055Z,100844
2014-09-07T22:05:21.243Z,100838
2014-09-07T22:05:39.431Z,100846
2014-09-07T22:05:57.618Z,100832
2014-09-07T22:06:15.825Z,100835
2014-09-07T22:06:34.012Z,100835
2014-09-07T22:06:52.200Z,100835
2014-09-07T22:07:10.387Z,100846
2014-09-07T22:07:28.577Z,100838
2014-09-07T22:07:46.780Z,100844
2014-09-07T22:08:04.967Z,100832
2014-09-07T22:08:23.157Z,100844
2014-09-07T22:08:41.344Z,100835
2014-09-07T22:08:59.547Z,100832
2014-09-07T22:09:17.735Z,100849
2014-09-07T22:09:35.923Z,100829
2014-09-07T22:09:54.111Z,100838
2014-09-07T22:10:12.298Z,100838
2014-09-07T22:10:30.489Z,100832
2014-09-07T22:10:48.692Z,100832
2014-09-07T22:11:06.879Z,100838
2014-09-07T22:11:25.067Z,100835
2014-09-07T22:11:43.256Z,100838
2014-09-07T22:12:01.444Z,100832
2014-09-07T22:12:19.647Z,100838
2014-09-07T22:12:37.837Z,100832
2014-09-07T22:12:56.024Z,100846
2014-09-07T22:13:14.212Z,100844
2014-09-07T22:13:32.399Z,100844
2014-09-07T22:13:50.603Z,100832
2014-09-07T22:14:08.791Z,100832
2014-09-07T22:14:26.978Z,100829
2014-09-07T22:14:45.169Z,100835
2014-09-07T22:15:03.372Z,100838
2014-09-07T22:15:21.559Z,100838
2014-09-07T22:15:39.747Z,100835
2014-09-07T22:15:57.936Z,100829
2014-09-07T22:16:16.124Z,100835
2014-09-07T22:16:34.327Z,100821
2014-09-07T22:16:52.516Z,100821
2014-09-07T22:17:10.704Z,100835
2014-09-07T22:17:28.891Z,100823
2014-09-07T22:17:47.079Z,100832
2014-09-07T22:18:05.284Z,100835
2014-09-07T22:18:23.472Z,100826
2014-09-07T22:18:41.659Z,100826
2014-09-07T22:18:59.849Z,100835
2014-09-07T22:19:18.036Z,100826
2014-09-07T22:19:36.239Z,100838
2014-09-07T22:19:54.427Z,100838
2014-09-07T22:20:12.616Z,100838
2014-09-07T22:20:30.804Z,100835
2014-09-07T22:20:49.007Z,100838
2014-09-07T22:21:07.196Z,100844
2014-09-07T22:21:25.384Z,100844
2014-09-07T22:21:43.571Z,100835
2014-09-07T22:22:01.759Z,100848
2014-09-07T22:22:19.948Z,100844
2014-09-07T22:22:38.151Z,100829
2014-09-07T22:22:56.339Z,100848
2014-09-07T22:23:14.528Z,100844
2014-09-07T22:23:32.716Z,100832
2014-09-07T22:23:50.903Z,100845
2014-09-07T22:24:09.091Z,100832
2014-09-07T22:24:27.280Z,100848
2014-09-07T22:24:45.484Z,100844
2014-09-07T22:25:03.671Z,100844
2014-09-07T22:25:21.861Z,100845
2014-09-07T22:25:40.048Z,100845
2014-09-07T22:25:58.236Z,100854